Valentine, NE

6:57 AM CDT on September 23, 2014 (GMT -0500)
Valentine Nebraska EW3958 | Change Station
CLOSE
Current Station
Personal Weather Station
Location: Valentine, NE
Elevation: 2585 ft
Nearby Weather Stations

Elev 2585 ft 42.88 °N, 100.56 °W | Updated 5 seconds ago

Mostly Cloudy
Mostly Cloudy
55.8 °F
Feels Like 55.8 °F
N
7.0
Wind Variable Wind from South
Gusts 9.0 mph

Today
High -- | Low -- °F
--% Chance of Precip.
Yesterday
High -- | Low -- °F
Precip. -- in
7:30 AM 7:37 PM
Waning Crescent, 1% visible
Pressure 29.95 in
Visibility 10.0 miles
Clouds Mostly Cloudy 1000 ft
Dew Point 54 °F
Humidity 93%
Rainfall 0.00 in
Snow Depth Not available.
UV 0 out of 12
Pollen 3.40 out of 12
Air Quality Not available.
Flu Activity Not available.
METAR KVTN 231152Z AUTO 17006KT 10SM BKN010 13/12 A2997 RMK AO2 SLP141 70002 T01330122 10161 20128 56003

More Conditions Fewer Conditions

Pressure 29.95 in
Visibility 10.0 miles
Clouds Mostly Cloudy 1000 ft
Dew Point 54 °F
Humidity 93%
Rainfall 0.00 in
Snow Depth Not available.
UV 0 out of 12
Pollen 3.40 out of 12
Air Quality Not available.
Flu Activity Not available.
METAR KVTN 231152Z AUTO 17006KT 10SM BKN010 13/12 A2997 RMK AO2 SLP141 70002 T01330122 10161 20128 56003

More Conditions Fewer Conditions

10-Day Weather Forecast

Almanac

Astronomy

Sep. 23, 2014 Rise Set
Actual Time 7:30 AM CDT 7:37 PM CDT
Civil Twilight 7:02 AM CDT 8:05 PM CDT
Nautical Twilight 6:29 AM CDT 8:38 PM CDT
Astronomical Twilight 5:55 AM CDT 9:12 PM CDT
Moon 6:56 AM CDT 7:17 PM CDT
Length of Visible Light 13h 03m
Length of Day
12h 06m
Tomorrow will be 2m 52s shorter.
Waning Crescent, 1% of the Moon is Illuminated
Today
Waning Crescent
Sep 24
New
Oct 1
First Quarter
Oct 8
Full
Oct 15
Last Quarter

Today's Extremes

State Highs State Lows

Community

WunderPhotos

Upload Photos

1,755,644 photos uploaded!

WunderBlogs® & News

By Dr. Jeff Masters
Director of Meteorology, Weather Underground
By Kari Strenfel
Meteorologist, Weather Underground
By Christopher C. Burt
Weather Historian, Weather Underground
September 23, 2014
September 23, 2014
September 23, 2014

Nearby

Snow Depth

Station Depth Elevation
No new snow has been reported.

Earthquake Activity

City Distance Mag. Time & Date
No recent earthquake activity has been reported nearby.
Minimum magnitude displayed is 2.5.

Coastal Water Temperatures

Place Temperature
No Stations Reporting

Nearby Weather Stations